sensor_id;sensor_type;location;lat;lon;timestamp;P1;durP1;ratioP1;P2;durP2;ratioP2
14292;SDS011;62290;59.420;17.842;2023-08-31T00:02:23;3.92;;;1.80;;
14292;SDS011;62290;59.420;17.842;2023-08-31T00:04:51;4.93;;;2.03;;
14292;SDS011;62290;59.420;17.842;2023-08-31T00:07:20;1.65;;;1.52;;
14292;SDS011;62290;59.420;17.842;2023-08-31T00:09:49;2.55;;;1.77;;
14292;SDS011;62290;59.420;17.842;2023-08-31T00:12:18;3.85;;;1.90;;
14292;SDS011;62290;59.420;17.842;2023-08-31T00:14:46;2.00;;;1.42;;
14292;SDS011;62290;59.420;17.842;2023-08-31T00:17:15;2.92;;;1.92;;
14292;SDS011;62290;59.420;17.842;2023-08-31T00:19:44;2.42;;;1.65;;
14292;SDS011;62290;59.420;17.842;2023-08-31T00:22:12;2.60;;;1.67;;
14292;SDS011;62290;59.420;17.842;2023-08-31T00:24:40;2.03;;;1.52;;
14292;SDS011;62290;59.420;17.842;2023-08-31T00:27:08;2.88;;;1.70;;
14292;SDS011;62290;59.420;17.842;2023-08-31T00:29:42;2.13;;;1.63;;
14292;SDS011;62290;59.420;17.842;2023-08-31T00:32:12;2.35;;;1.63;;
14292;SDS011;62290;59.420;17.842;2023-08-31T00:34:41;2.08;;;1.60;;
14292;SDS011;62290;59.420;17.842;2023-08-31T00:37:09;2.35;;;1.48;;
14292;SDS011;62290;59.420;17.842;2023-08-31T00:39:37;1.42;;;1.30;;
14292;SDS011;62290;59.420;17.842;2023-08-31T00:42:07;1.45;;;1.33;;
14292;SDS011;62290;59.420;17.842;2023-08-31T00:44:35;1.65;;;1.30;;
14292;SDS011;62290;59.420;17.842;2023-08-31T00:47:03;2.13;;;1.50;;
14292;SDS011;62290;59.420;17.842;2023-08-31T00:49:32;1.38;;;1.27;;
14292;SDS011;62290;59.420;17.842;2023-08-31T00:52:03;1.85;;;1.23;;
14292;SDS011;62290;59.420;17.842;2023-08-31T00:54:31;1.85;;;1.33;;
14292;SDS011;62290;59.420;17.842;2023-08-31T00:57:00;3.33;;;1.30;;
14292;SDS011;62290;59.420;17.842;2023-08-31T00:59:30;1.88;;;1.23;;
14292;SDS011;62290;59.420;17.842;2023-08-31T01:02:01;1.70;;;1.30;;
14292;SDS011;62290;59.420;17.842;2023-08-31T01:04:38;1.77;;;1.33;;
14292;SDS011;62290;59.420;17.842;2023-08-31T01:07:19;3.22;;;1.42;;
14292;SDS011;62290;59.420;17.842;2023-08-31T01:09:57;1.42;;;1.00;;
14292;SDS011;62290;59.420;17.842;2023-08-31T01:12:36;3.08;;;1.10;;
14292;SDS011;62290;59.420;17.842;2023-08-31T01:15:09;1.85;;;1.40;;
14292;SDS011;62290;59.420;17.842;2023-08-31T01:17:40;1.88;;;1.42;;
14292;SDS011;62290;59.420;17.842;2023-08-31T01:20:11;2.47;;;1.10;;
14292;SDS011;62290;59.420;17.842;2023-08-31T01:22:47;1.50;;;1.17;;
14292;SDS011;62290;59.420;17.842;2023-08-31T01:25:24;1.27;;;1.08;;
14292;SDS011;62290;59.420;17.842;2023-08-31T01:27:55;1.17;;;0.93;;
14292;SDS011;62290;59.420;17.842;2023-08-31T01:30:23;2.63;;;1.58;;
14292;SDS011;62290;59.420;17.842;2023-08-31T01:32:51;1.33;;;1.05;;
14292;SDS011;62290;59.420;17.842;2023-08-31T01:35:19;1.58;;;0.90;;
14292;SDS011;62290;59.420;17.842;2023-08-31T01:37:49;2.00;;;1.17;;
14292;SDS011;62290;59.420;17.842;2023-08-31T01:40:19;1.05;;;0.93;;
14292;SDS011;62290;59.420;17.842;2023-08-31T01:42:52;0.98;;;0.90;;
14292;SDS011;62290;59.420;17.842;2023-08-31T01:45:22;1.33;;;1.20;;
14292;SDS011;62290;59.420;17.842;2023-08-31T01:47:51;1.17;;;0.80;;
14292;SDS011;62290;59.420;17.842;2023-08-31T01:50:19;2.70;;;1.10;;
14292;SDS011;62290;59.420;17.842;2023-08-31T01:52:47;1.48;;;0.98;;
14292;SDS011;62290;59.420;17.842;2023-08-31T01:55:15;1.05;;;0.90;;
14292;SDS011;62290;59.420;17.842;2023-08-31T01:57:43;1.50;;;1.08;;
14292;SDS011;62290;59.420;17.842;2023-08-31T02:00:18;1.45;;;1.00;;
14292;SDS011;62290;59.420;17.842;2023-08-31T02:02:46;1.15;;;0.88;;
14292;SDS011;62290;59.420;17.842;2023-08-31T02:05:15;2.63;;;0.90;;
14292;SDS011;62290;59.420;17.842;2023-08-31T02:07:43;2.75;;;1.30;;
14292;SDS011;62290;59.420;17.842;2023-08-31T02:10:11;0.90;;;0.82;;
14292;SDS011;62290;59.420;17.842;2023-08-31T02:12:42;0.90;;;0.80;;
14292;SDS011;62290;59.420;17.842;2023-08-31T02:15:10;1.00;;;0.90;;
14292;SDS011;62290;59.420;17.842;2023-08-31T02:17:39;1.17;;;1.02;;
14292;SDS011;62290;59.420;17.842;2023-08-31T02:20:07;1.08;;;0.95;;
14292;SDS011;62290;59.420;17.842;2023-08-31T02:22:36;0.80;;;0.80;;
14292;SDS011;62290;59.420;17.842;2023-08-31T02:25:05;1.50;;;0.90;;
14292;SDS011;62290;59.420;17.842;2023-08-31T02:27:33;1.20;;;0.82;;
14292;SDS011;62290;59.420;17.842;2023-08-31T02:30:01;2.17;;;1.10;;
14292;SDS011;62290;59.420;17.842;2023-08-31T02:32:33;1.02;;;0.90;;
14292;SDS011;62290;59.420;17.842;2023-08-31T02:35:03;2.15;;;1.05;;
14292;SDS011;62290;59.420;17.842;2023-08-31T02:37:33;1.50;;;1.00;;
14292;SDS011;62290;59.420;17.842;2023-08-31T02:40:01;1.00;;;0.90;;
14292;SDS011;62290;59.420;17.842;2023-08-31T02:42:29;1.20;;;0.90;;
14292;SDS011;62290;59.420;17.842;2023-08-31T02:44:57;1.38;;;0.85;;
14292;SDS011;62290;59.420;17.842;2023-08-31T02:47:25;0.98;;;0.90;;
14292;SDS011;62290;59.420;17.842;2023-08-31T02:49:53;1.80;;;0.80;;
14292;SDS011;62290;59.420;17.842;2023-08-31T02:52:23;2.22;;;0.93;;
14292;SDS011;62290;59.420;17.842;2023-08-31T02:54:52;1.80;;;0.85;;
14292;SDS011;62290;59.420;17.842;2023-08-31T02:57:20;1.25;;;0.82;;
14292;SDS011;62290;59.420;17.842;2023-08-31T02:59:50;1.95;;;0.90;;
14292;SDS011;62290;59.420;17.842;2023-08-31T03:02:18;1.52;;;0.90;;
14292;SDS011;62290;59.420;17.842;2023-08-31T03:04:46;2.22;;;0.90;;
14292;SDS011;62290;59.420;17.842;2023-08-31T03:07:14;3.95;;;0.90;;
14292;SDS011;62290;59.420;17.842;2023-08-31T03:09:47;2.15;;;0.93;;
14292;SDS011;62290;59.420;17.842;2023-08-31T03:12:16;1.50;;;1.13;;
14292;SDS011;62290;59.420;17.842;2023-08-31T03:14:44;3.10;;;0.80;;
14292;SDS011;62290;59.420;17.842;2023-08-31T03:17:12;1.15;;;0.88;;
14292;SDS011;62290;59.420;17.842;2023-08-31T03:19:40;1.95;;;1.10;;
14292;SDS011;62290;59.420;17.842;2023-08-31T03:22:11;3.22;;;1.08;;
14292;SDS011;62290;59.420;17.842;2023-08-31T03:24:40;1.10;;;0.82;;
14292;SDS011;62290;59.420;17.842;2023-08-31T03:27:09;2.15;;;1.00;;
14292;SDS011;62290;59.420;17.842;2023-08-31T03:29:38;1.38;;;0.90;;
14292;SDS011;62290;59.420;17.842;2023-08-31T03:32:06;0.80;;;0.80;;
14292;SDS011;62290;59.420;17.842;2023-08-31T03:34:35;0.65;;;0.55;;
14292;SDS011;62290;59.420;17.842;2023-08-31T03:37:03;0.90;;;0.70;;
14292;SDS011;62290;59.420;17.842;2023-08-31T03:39:33;1.75;;;1.10;;
14292;SDS011;62290;59.420;17.842;2023-08-31T03:42:01;1.30;;;0.80;;
14292;SDS011;62290;59.420;17.842;2023-08-31T03:44:30;1.05;;;0.95;;
14292;SDS011;62290;59.420;17.842;2023-08-31T03:46:58;1.70;;;1.00;;
14292;SDS011;62290;59.420;17.842;2023-08-31T03:49:26;1.05;;;0.80;;
14292;SDS011;62290;59.420;17.842;2023-08-31T03:51:54;2.53;;;1.00;;
14292;SDS011;62290;59.420;17.842;2023-08-31T03:54:23;3.53;;;1.45;;
14292;SDS011;62290;59.420;17.842;2023-08-31T03:56:51;2.08;;;1.10;;
14292;SDS011;62290;59.420;17.842;2023-08-31T03:59:19;2.03;;;0.70;;
14292;SDS011;62290;59.420;17.842;2023-08-31T04:01:49;1.08;;;0.90;;
14292;SDS011;62290;59.420;17.842;2023-08-31T04:04:17;1.00;;;0.90;;
14292;SDS011;62290;59.420;17.842;2023-08-31T04:06:46;1.00;;;0.90;;
14292;SDS011;62290;59.420;17.842;2023-08-31T04:09:14;0.90;;;0.80;;
14292;SDS011;62290;59.420;17.842;2023-08-31T04:11:41;0.70;;;0.70;;
14292;SDS011;62290;59.420;17.842;2023-08-31T04:14:09;2.00;;;1.10;;
14292;SDS011;62290;59.420;17.842;2023-08-31T04:16:37;0.80;;;0.80;;
14292;SDS011;62290;59.420;17.842;2023-08-31T04:19:07;5.80;;;1.00;;
14292;SDS011;62290;59.420;17.842;2023-08-31T04:21:34;1.60;;;0.82;;
14292;SDS011;62290;59.420;17.842;2023-08-31T04:24:04;1.60;;;0.90;;
14292;SDS011;62290;59.420;17.842;2023-08-31T04:26:33;2.03;;;0.90;;
14292;SDS011;62290;59.420;17.842;2023-08-31T04:29:01;1.58;;;0.75;;
14292;SDS011;62290;59.420;17.842;2023-08-31T04:31:29;2.00;;;0.80;;
14292;SDS011;62290;59.420;17.842;2023-08-31T04:33:57;2.65;;;0.98;;
14292;SDS011;62290;59.420;17.842;2023-08-31T04:36:27;0.80;;;0.60;;
14292;SDS011;62290;59.420;17.842;2023-08-31T04:38:55;1.80;;;0.88;;
14292;SDS011;62290;59.420;17.842;2023-08-31T04:41:23;1.52;;;1.00;;
14292;SDS011;62290;59.420;17.842;2023-08-31T04:43:51;1.25;;;0.70;;
14292;SDS011;62290;59.420;17.842;2023-08-31T04:46:19;1.88;;;0.80;;
14292;SDS011;62290;59.420;17.842;2023-08-31T04:48:47;2.45;;;0.93;;
14292;SDS011;62290;59.420;17.842;2023-08-31T04:51:30;1.13;;;0.70;;
14292;SDS011;62290;59.420;17.842;2023-08-31T04:53:58;1.52;;;1.00;;
14292;SDS011;62290;59.420;17.842;2023-08-31T04:56:30;1.95;;;0.88;;
14292;SDS011;62290;59.420;17.842;2023-08-31T04:58:59;0.73;;;0.68;;
14292;SDS011;62290;59.420;17.842;2023-08-31T05:01:29;1.25;;;1.13;;
14292;SDS011;62290;59.420;17.842;2023-08-31T05:03:57;1.40;;;0.90;;
14292;SDS011;62290;59.420;17.842;2023-08-31T05:06:25;1.13;;;1.00;;
14292;SDS011;62290;59.420;17.842;2023-08-31T05:08:54;0.93;;;0.70;;
14292;SDS011;62290;59.420;17.842;2023-08-31T05:11:23;1.45;;;0.93;;
14292;SDS011;62290;59.420;17.842;2023-08-31T05:13:51;1.05;;;0.90;;
14292;SDS011;62290;59.420;17.842;2023-08-31T05:16:19;1.38;;;1.00;;
14292;SDS011;62290;59.420;17.842;2023-08-31T05:18:48;3.92;;;1.05;;
14292;SDS011;62290;59.420;17.842;2023-08-31T05:21:16;1.00;;;0.90;;
14292;SDS011;62290;59.420;17.842;2023-08-31T05:23:44;1.60;;;0.80;;
14292;SDS011;62290;59.420;17.842;2023-08-31T05:26:13;1.30;;;0.90;;
14292;SDS011;62290;59.420;17.842;2023-08-31T05:28:42;1.05;;;0.93;;
14292;SDS011;62290;59.420;17.842;2023-08-31T05:31:10;1.35;;;0.82;;
14292;SDS011;62290;59.420;17.842;2023-08-31T05:33:38;1.20;;;0.90;;
14292;SDS011;62290;59.420;17.842;2023-08-31T05:36:06;2.95;;;0.95;;
14292;SDS011;62290;59.420;17.842;2023-08-31T05:38:35;1.25;;;1.15;;
14292;SDS011;62290;59.420;17.842;2023-08-31T05:41:03;1.42;;;1.10;;
14292;SDS011;62290;59.420;17.842;2023-08-31T05:43:36;1.48;;;0.93;;
14292;SDS011;62290;59.420;17.842;2023-08-31T05:46:06;0.60;;;0.60;;
14292;SDS011;62290;59.420;17.842;2023-08-31T05:48:35;1.27;;;1.00;;
14292;SDS011;62290;59.420;17.842;2023-08-31T05:51:03;1.60;;;1.10;;
14292;SDS011;62290;59.420;17.842;2023-08-31T05:53:32;0.95;;;0.82;;
14292;SDS011;62290;59.420;17.842;2023-08-31T05:56:01;2.13;;;0.90;;
14292;SDS011;62290;59.420;17.842;2023-08-31T05:58:32;2.50;;;1.20;;
14292;SDS011;62290;59.420;17.842;2023-08-31T06:01:02;1.13;;;0.85;;
14292;SDS011;62290;59.420;17.842;2023-08-31T06:03:30;1.33;;;0.90;;
14292;SDS011;62290;59.420;17.842;2023-08-31T06:05:59;0.95;;;0.85;;
14292;SDS011;62290;59.420;17.842;2023-08-31T06:08:28;0.80;;;0.68;;
14292;SDS011;62290;59.420;17.842;2023-08-31T06:10:56;0.95;;;0.88;;
14292;SDS011;62290;59.420;17.842;2023-08-31T06:13:25;2.25;;;1.65;;
14292;SDS011;62290;59.420;17.842;2023-08-31T06:15:54;1.35;;;0.90;;
14292;SDS011;62290;59.420;17.842;2023-08-31T06:18:25;1.35;;;0.93;;
14292;SDS011;62290;59.420;17.842;2023-08-31T06:20:53;3.50;;;1.13;;
14292;SDS011;62290;59.420;17.842;2023-08-31T06:23:22;1.23;;;0.93;;
14292;SDS011;62290;59.420;17.842;2023-08-31T06:25:50;1.38;;;1.02;;
14292;SDS011;62290;59.420;17.842;2023-08-31T06:28:18;1.50;;;1.10;;
14292;SDS011;62290;59.420;17.842;2023-08-31T06:30:46;1.73;;;1.17;;
14292;SDS011;62290;59.420;17.842;2023-08-31T06:33:14;1.95;;;1.00;;
14292;SDS011;62290;59.420;17.842;2023-08-31T06:35:45;1.48;;;1.00;;
14292;SDS011;62290;59.420;17.842;2023-08-31T06:38:15;1.70;;;1.20;;
14292;SDS011;62290;59.420;17.842;2023-08-31T06:40:42;3.67;;;1.13;;
14292;SDS011;62290;59.420;17.842;2023-08-31T06:43:10;6.40;;;1.50;;
14292;SDS011;62290;59.420;17.842;2023-08-31T06:45:39;5.20;;;1.42;;
14292;SDS011;62290;59.420;17.842;2023-08-31T06:48:07;5.65;;;1.65;;
14292;SDS011;62290;59.420;17.842;2023-08-31T06:50:36;4.03;;;1.33;;
14292;SDS011;62290;59.420;17.842;2023-08-31T06:53:05;7.70;;;1.55;;
14292;SDS011;62290;59.420;17.842;2023-08-31T06:55:33;3.55;;;1.27;;
14292;SDS011;62290;59.420;17.842;2023-08-31T06:58:01;11.38;;;1.85;;
14292;SDS011;62290;59.420;17.842;2023-08-31T07:00:31;6.15;;;1.50;;
14292;SDS011;62290;59.420;17.842;2023-08-31T07:02:59;3.60;;;1.17;;
14292;SDS011;62290;59.420;17.842;2023-08-31T07:05:27;4.43;;;1.48;;
14292;SDS011;62290;59.420;17.842;2023-08-31T07:07:56;4.65;;;1.20;;
14292;SDS011;62290;59.420;17.842;2023-08-31T07:10:26;3.00;;;1.27;;
14292;SDS011;62290;59.420;17.842;2023-08-31T07:12:54;3.70;;;1.05;;
14292;SDS011;62290;59.420;17.842;2023-08-31T07:15:22;3.03;;;1.20;;
14292;SDS011;62290;59.420;17.842;2023-08-31T07:17:50;3.80;;;1.00;;
14292;SDS011;62290;59.420;17.842;2023-08-31T07:20:18;5.15;;;1.20;;
14292;SDS011;62290;59.420;17.842;2023-08-31T07:22:45;1.60;;;0.85;;
14292;SDS011;62290;59.420;17.842;2023-08-31T07:25:13;2.83;;;1.15;;
14292;SDS011;62290;59.420;17.842;2023-08-31T07:27:43;2.45;;;1.25;;
14292;SDS011;62290;59.420;17.842;2023-08-31T07:30:12;2.53;;;1.20;;
14292;SDS011;62290;59.420;17.842;2023-08-31T07:32:40;4.15;;;1.30;;
14292;SDS011;62290;59.420;17.842;2023-08-31T07:35:08;3.05;;;0.98;;
14292;SDS011;62290;59.420;17.842;2023-08-31T07:37:36;2.15;;;0.85;;
14292;SDS011;62290;59.420;17.842;2023-08-31T07:40:05;2.78;;;1.05;;
14292;SDS011;62290;59.420;17.842;2023-08-31T07:42:36;1.40;;;0.95;;
14292;SDS011;62290;59.420;17.842;2023-08-31T07:45:06;2.05;;;1.00;;
14292;SDS011;62290;59.420;17.842;2023-08-31T07:47:35;2.10;;;1.20;;
14292;SDS011;62290;59.420;17.842;2023-08-31T07:50:03;2.60;;;0.98;;
14292;SDS011;62290;59.420;17.842;2023-08-31T07:52:33;1.23;;;0.80;;
14292;SDS011;62290;59.420;17.842;2023-08-31T07:55:00;2.72;;;1.13;;
14292;SDS011;62290;59.420;17.842;2023-08-31T07:57:30;1.13;;;1.00;;
14292;SDS011;62290;59.420;17.842;2023-08-31T07:59:58;1.13;;;0.90;;
14292;SDS011;62290;59.420;17.842;2023-08-31T08:02:39;1.17;;;0.80;;
14292;SDS011;62290;59.420;17.842;2023-08-31T08:05:07;1.33;;;0.80;;
14292;SDS011;62290;59.420;17.842;2023-08-31T08:07:35;4.20;;;1.23;;
14292;SDS011;62290;59.420;17.842;2023-08-31T08:10:04;1.83;;;1.00;;
14292;SDS011;62290;59.420;17.842;2023-08-31T08:12:36;1.13;;;0.90;;
14292;SDS011;62290;59.420;17.842;2023-08-31T08:15:06;2.38;;;0.80;;
14292;SDS011;62290;59.420;17.842;2023-08-31T08:17:34;1.08;;;0.95;;
14292;SDS011;62290;59.420;17.842;2023-08-31T08:20:04;2.13;;;0.90;;
14292;SDS011;62290;59.420;17.842;2023-08-31T08:22:34;2.40;;;1.20;;
14292;SDS011;62290;59.420;17.842;2023-08-31T08:25:02;1.38;;;0.90;;
14292;SDS011;62290;59.420;17.842;2023-08-31T08:27:32;1.58;;;0.90;;
14292;SDS011;62290;59.420;17.842;2023-08-31T08:30:01;2.30;;;1.30;;
14292;SDS011;62290;59.420;17.842;2023-08-31T08:32:29;1.23;;;1.00;;
14292;SDS011;62290;59.420;17.842;2023-08-31T08:34:57;1.08;;;0.88;;
14292;SDS011;62290;59.420;17.842;2023-08-31T08:37:27;1.48;;;1.08;;
14292;SDS011;62290;59.420;17.842;2023-08-31T08:39:55;1.55;;;1.02;;
14292;SDS011;62290;59.420;17.842;2023-08-31T08:42:24;3.40;;;1.00;;
14292;SDS011;62290;59.420;17.842;2023-08-31T08:44:52;1.52;;;1.10;;
14292;SDS011;62290;59.420;17.842;2023-08-31T08:47:20;1.27;;;0.98;;
14292;SDS011;62290;59.420;17.842;2023-08-31T08:49:48;2.10;;;1.02;;
14292;SDS011;62290;59.420;17.842;2023-08-31T08:52:16;1.60;;;0.88;;
14292;SDS011;62290;59.420;17.842;2023-08-31T08:54:47;2.42;;;0.90;;
14292;SDS011;62290;59.420;17.842;2023-08-31T08:57:17;1.63;;;1.10;;
14292;SDS011;62290;59.420;17.842;2023-08-31T08:59:46;1.52;;;0.93;;
14292;SDS011;62290;59.420;17.842;2023-08-31T09:02:14;1.92;;;1.10;;
14292;SDS011;62290;59.420;17.842;2023-08-31T09:04:42;2.17;;;1.00;;
14292;SDS011;62290;59.420;17.842;2023-08-31T09:07:10;1.70;;;0.93;;
14292;SDS011;62290;59.420;17.842;2023-08-31T09:12:30;1.23;;;1.02;;
14292;SDS011;62290;59.420;17.842;2023-08-31T09:14:58;0.95;;;0.82;;
14292;SDS011;62290;59.420;17.842;2023-08-31T09:17:37;1.42;;;1.05;;
14292;SDS011;62290;59.420;17.842;2023-08-31T09:20:06;0.98;;;0.80;;
14292;SDS011;62290;59.420;17.842;2023-08-31T09:22:35;1.17;;;1.02;;
14292;SDS011;62290;59.420;17.842;2023-08-31T09:25:07;1.42;;;1.00;;
14292;SDS011;62290;59.420;17.842;2023-08-31T09:27:36;1.98;;;0.95;;
14292;SDS011;62290;59.420;17.842;2023-08-31T09:30:05;1.15;;;0.90;;
14292;SDS011;62290;59.420;17.842;2023-08-31T09:32:35;2.00;;;1.17;;
14292;SDS011;62290;59.420;17.842;2023-08-31T09:35:03;4.20;;;0.95;;
14292;SDS011;62290;59.420;17.842;2023-08-31T09:37:54;2.30;;;1.25;;
14292;SDS011;62290;59.420;17.842;2023-08-31T09:40:25;0.75;;;0.75;;
14292;SDS011;62290;59.420;17.842;2023-08-31T09:42:53;2.03;;;0.90;;
14292;SDS011;62290;59.420;17.842;2023-08-31T09:45:25;1.15;;;0.90;;
14292;SDS011;62290;59.420;17.842;2023-08-31T09:48:11;0.98;;;0.82;;
14292;SDS011;62290;59.420;17.842;2023-08-31T09:50:42;0.80;;;0.80;;
14292;SDS011;62290;59.420;17.842;2023-08-31T09:53:11;3.13;;;1.08;;
14292;SDS011;62290;59.420;17.842;2023-08-31T09:55:41;1.70;;;0.85;;
14292;SDS011;62290;59.420;17.842;2023-08-31T09:58:11;1.42;;;0.93;;
14292;SDS011;62290;59.420;17.842;2023-08-31T10:00:42;1.35;;;0.90;;
14292;SDS011;62290;59.420;17.842;2023-08-31T10:03:11;2.15;;;0.60;;
14292;SDS011;62290;59.420;17.842;2023-08-31T10:05:45;1.77;;;1.30;;
14292;SDS011;62290;59.420;17.842;2023-08-31T10:08:17;1.52;;;1.10;;
14292;SDS011;62290;59.420;17.842;2023-08-31T10:10:47;2.28;;;1.30;;
14292;SDS011;62290;59.420;17.842;2023-08-31T10:13:15;2.45;;;1.25;;
14292;SDS011;62290;59.420;17.842;2023-08-31T10:15:44;1.58;;;1.25;;
14292;SDS011;62290;59.420;17.842;2023-08-31T10:18:13;1.88;;;1.30;;
14292;SDS011;62290;59.420;17.842;2023-08-31T10:20:42;2.78;;;1.40;;
14292;SDS011;62290;59.420;17.842;2023-08-31T10:23:12;1.48;;;1.10;;
14292;SDS011;62290;59.420;17.842;2023-08-31T10:26:01;1.10;;;0.70;;
14292;SDS011;62290;59.420;17.842;2023-08-31T10:28:38;1.10;;;0.80;;
14292;SDS011;62290;59.420;17.842;2023-08-31T10:31:07;2.75;;;1.00;;
14292;SDS011;62290;59.420;17.842;2023-08-31T10:33:40;1.58;;;1.00;;
14292;SDS011;62290;59.420;17.842;2023-08-31T10:36:09;1.15;;;0.85;;
14292;SDS011;62290;59.420;17.842;2023-08-31T10:38:40;1.50;;;0.85;;
14292;SDS011;62290;59.420;17.842;2023-08-31T10:41:20;1.15;;;0.95;;
14292;SDS011;62290;59.420;17.842;2023-08-31T10:43:49;1.20;;;0.90;;
14292;SDS011;62290;59.420;17.842;2023-08-31T10:46:29;1.40;;;0.90;;
14292;SDS011;62290;59.420;17.842;2023-08-31T10:48:58;1.30;;;1.05;;
14292;SDS011;62290;59.420;17.842;2023-08-31T10:51:28;2.63;;;1.02;;
14292;SDS011;62290;59.420;17.842;2023-08-31T10:54:06;1.55;;;1.05;;
14292;SDS011;62290;59.420;17.842;2023-08-31T10:56:54;1.48;;;1.13;;
14292;SDS011;62290;59.420;17.842;2023-08-31T11:02:26;1.45;;;1.15;;
14292;SDS011;62290;59.420;17.842;2023-08-31T11:04:55;1.92;;;1.33;;
14292;SDS011;62290;59.420;17.842;2023-08-31T11:07:27;2.38;;;1.00;;
14292;SDS011;62290;59.420;17.842;2023-08-31T11:10:06;1.73;;;1.00;;
14292;SDS011;62290;59.420;17.842;2023-08-31T11:12:37;1.45;;;0.90;;
14292;SDS011;62290;59.420;17.842;2023-08-31T11:15:06;1.95;;;0.82;;
14292;SDS011;62290;59.420;17.842;2023-08-31T11:17:34;1.13;;;0.95;;
14292;SDS011;62290;59.420;17.842;2023-08-31T11:20:05;0.82;;;0.70;;
14292;SDS011;62290;59.420;17.842;2023-08-31T11:22:38;1.92;;;1.05;;
14292;SDS011;62290;59.420;17.842;2023-08-31T11:25:07;1.45;;;1.00;;
14292;SDS011;62290;59.420;17.842;2023-08-31T11:27:38;1.60;;;0.82;;
14292;SDS011;62290;59.420;17.842;2023-08-31T11:30:11;1.10;;;0.82;;
14292;SDS011;62290;59.420;17.842;2023-08-31T11:32:43;1.10;;;0.82;;
14292;SDS011;62290;59.420;17.842;2023-08-31T11:35:13;1.70;;;1.00;;
14292;SDS011;62290;59.420;17.842;2023-08-31T11:37:42;3.15;;;0.93;;
14292;SDS011;62290;59.420;17.842;2023-08-31T11:40:11;1.48;;;0.80;;
14292;SDS011;62290;59.420;17.842;2023-08-31T11:42:42;2.20;;;1.15;;
14292;SDS011;62290;59.420;17.842;2023-08-31T11:45:10;1.38;;;0.90;;
14292;SDS011;62290;59.420;17.842;2023-08-31T11:47:40;1.13;;;0.75;;
14292;SDS011;62290;59.420;17.842;2023-08-31T11:50:11;5.03;;;0.75;;
14292;SDS011;62290;59.420;17.842;2023-08-31T11:52:41;1.23;;;1.00;;
14292;SDS011;62290;59.420;17.842;2023-08-31T11:55:10;1.25;;;0.80;;
14292;SDS011;62290;59.420;17.842;2023-08-31T11:57:39;1.20;;;0.88;;
14292;SDS011;62290;59.420;17.842;2023-08-31T12:00:09;1.23;;;0.77;;
14292;SDS011;62290;59.420;17.842;2023-08-31T12:02:38;0.85;;;0.75;;
14292;SDS011;62290;59.420;17.842;2023-08-31T12:05:06;2.53;;;0.90;;
14292;SDS011;62290;59.420;17.842;2023-08-31T12:07:38;1.13;;;0.90;;
14292;SDS011;62290;59.420;17.842;2023-08-31T12:10:07;1.23;;;0.80;;
14292;SDS011;62290;59.420;17.842;2023-08-31T12:12:36;2.40;;;0.80;;
14292;SDS011;62290;59.420;17.842;2023-08-31T12:15:05;2.67;;;0.90;;
14292;SDS011;62290;59.420;17.842;2023-08-31T12:17:38;1.77;;;0.98;;
14292;SDS011;62290;59.420;17.842;2023-08-31T12:20:06;2.35;;;0.90;;
14292;SDS011;62290;59.420;17.842;2023-08-31T12:22:36;0.95;;;0.68;;
14292;SDS011;62290;59.420;17.842;2023-08-31T12:25:04;1.00;;;0.80;;
14292;SDS011;62290;59.420;17.842;2023-08-31T12:27:33;1.63;;;0.73;;
14292;SDS011;62290;59.420;17.842;2023-08-31T12:30:01;0.63;;;0.63;;
14292;SDS011;62290;59.420;17.842;2023-08-31T12:32:29;0.77;;;0.55;;
14292;SDS011;62290;59.420;17.842;2023-08-31T12:34:59;2.50;;;0.98;;
14292;SDS011;62290;59.420;17.842;2023-08-31T12:37:27;2.25;;;0.88;;
14292;SDS011;62290;59.420;17.842;2023-08-31T12:39:54;1.23;;;0.90;;
14292;SDS011;62290;59.420;17.842;2023-08-31T12:42:22;1.27;;;0.80;;
14292;SDS011;62290;59.420;17.842;2023-08-31T12:44:51;0.98;;;0.73;;
14292;SDS011;62290;59.420;17.842;2023-08-31T12:47:18;0.77;;;0.70;;
14292;SDS011;62290;59.420;17.842;2023-08-31T12:49:46;1.67;;;1.00;;
14292;SDS011;62290;59.420;17.842;2023-08-31T12:52:16;0.75;;;0.75;;
14292;SDS011;62290;59.420;17.842;2023-08-31T12:54:44;1.52;;;0.60;;
14292;SDS011;62290;59.420;17.842;2023-08-31T12:57:13;1.08;;;0.70;;
14292;SDS011;62290;59.420;17.842;2023-08-31T12:59:42;1.25;;;0.85;;
14292;SDS011;62290;59.420;17.842;2023-08-31T13:02:12;1.52;;;1.08;;
14292;SDS011;62290;59.420;17.842;2023-08-31T13:04:40;1.20;;;0.73;;
14292;SDS011;62290;59.420;17.842;2023-08-31T13:07:07;1.38;;;0.90;;
14292;SDS011;62290;59.420;17.842;2023-08-31T13:09:37;0.80;;;0.77;;
14292;SDS011;62290;59.420;17.842;2023-08-31T13:12:05;2.40;;;0.95;;
14292;SDS011;62290;59.420;17.842;2023-08-31T13:14:33;0.98;;;0.80;;
14292;SDS011;62290;59.420;17.842;2023-08-31T13:17:01;0.80;;;0.65;;
14292;SDS011;62290;59.420;17.842;2023-08-31T13:19:30;0.70;;;0.70;;
14292;SDS011;62290;59.420;17.842;2023-08-31T13:21:58;1.30;;;0.80;;
14292;SDS011;62290;59.420;17.842;2023-08-31T13:24:26;0.73;;;0.65;;
14292;SDS011;62290;59.420;17.842;2023-08-31T13:26:56;1.27;;;0.63;;
14292;SDS011;62290;59.420;17.842;2023-08-31T13:29:24;1.15;;;0.82;;
14292;SDS011;62290;59.420;17.842;2023-08-31T13:31:52;0.90;;;0.70;;
14292;SDS011;62290;59.420;17.842;2023-08-31T13:34:20;1.10;;;0.90;;
14292;SDS011;62290;59.420;17.842;2023-08-31T13:36:48;1.25;;;0.90;;
14292;SDS011;62290;59.420;17.842;2023-08-31T13:39:16;1.70;;;1.02;;
14292;SDS011;62290;59.420;17.842;2023-08-31T13:41:44;1.30;;;0.80;;
14292;SDS011;62290;59.420;17.842;2023-08-31T13:44:14;1.45;;;0.90;;
14292;SDS011;62290;59.420;17.842;2023-08-31T13:46:42;2.40;;;0.80;;
14292;SDS011;62290;59.420;17.842;2023-08-31T13:49:10;0.95;;;0.70;;
14292;SDS011;62290;59.420;17.842;2023-08-31T13:51:38;1.10;;;1.00;;
14292;SDS011;62290;59.420;17.842;2023-08-31T13:54:06;1.50;;;0.88;;
14292;SDS011;62290;59.420;17.842;2023-08-31T13:56:34;1.10;;;0.80;;
14292;SDS011;62290;59.420;17.842;2023-08-31T13:59:02;2.42;;;1.00;;
14292;SDS011;62290;59.420;17.842;2023-08-31T14:01:32;0.95;;;0.80;;
14292;SDS011;62290;59.420;17.842;2023-08-31T14:04:01;3.80;;;1.02;;
14292;SDS011;62290;59.420;17.842;2023-08-31T14:06:30;1.00;;;0.90;;
14292;SDS011;62290;59.420;17.842;2023-08-31T14:08:58;1.70;;;0.75;;
14292;SDS011;62290;59.420;17.842;2023-08-31T14:11:27;1.00;;;0.68;;
14292;SDS011;62290;59.420;17.842;2023-08-31T14:14:01;1.20;;;0.80;;
14292;SDS011;62290;59.420;17.842;2023-08-31T14:16:33;2.17;;;0.80;;
14292;SDS011;62290;59.420;17.842;2023-08-31T14:19:03;2.00;;;1.00;;
14292;SDS011;62290;59.420;17.842;2023-08-31T14:21:32;1.80;;;0.88;;
14292;SDS011;62290;59.420;17.842;2023-08-31T14:24:00;1.05;;;0.73;;
14292;SDS011;62290;59.420;17.842;2023-08-31T14:26:28;1.10;;;0.80;;
14292;SDS011;62290;59.420;17.842;2023-08-31T14:28:55;0.80;;;0.70;;
14292;SDS011;62290;59.420;17.842;2023-08-31T14:31:23;1.13;;;0.90;;
14292;SDS011;62290;59.420;17.842;2023-08-31T14:33:53;0.98;;;0.70;;
14292;SDS011;62290;59.420;17.842;2023-08-31T14:36:22;1.02;;;0.80;;
14292;SDS011;62290;59.420;17.842;2023-08-31T14:38:50;1.00;;;0.80;;
14292;SDS011;62290;59.420;17.842;2023-08-31T14:41:18;1.75;;;0.80;;
14292;SDS011;62290;59.420;17.842;2023-08-31T14:43:46;1.33;;;0.98;;
14292;SDS011;62290;59.420;17.842;2023-08-31T14:46:14;1.52;;;0.63;;
14292;SDS011;62290;59.420;17.842;2023-08-31T14:48:42;2.25;;;0.90;;
14292;SDS011;62290;59.420;17.842;2023-08-31T14:51:11;1.52;;;0.70;;
14292;SDS011;62290;59.420;17.842;2023-08-31T14:53:39;1.25;;;0.73;;